sensor_id;sensor_type;location;lat;lon;timestamp;temperature;humidity
32187;DHT22;18686;53.084;8.872;2024-03-22T00:01:08;9.80;99.90
32187;DHT22;18686;53.084;8.872;2024-03-22T00:03:37;9.80;99.90
32187;DHT22;18686;53.084;8.872;2024-03-22T00:06:03;9.80;99.90
32187;DHT22;18686;53.084;8.872;2024-03-22T00:08:31;9.90;99.90
32187;DHT22;18686;53.084;8.872;2024-03-22T00:10:57;9.90;99.90
32187;DHT22;18686;53.084;8.872;2024-03-22T00:13:24;9.90;99.90
32187;DHT22;18686;53.084;8.872;2024-03-22T00:15:50;9.90;99.90
32187;DHT22;18686;53.084;8.872;2024-03-22T00:18:19;9.90;99.90
32187;DHT22;18686;53.084;8.872;2024-03-22T00:20:46;10.00;99.90
32187;DHT22;18686;53.084;8.872;2024-03-22T00:23:13;10.00;99.90
32187;DHT22;18686;53.084;8.872;2024-03-22T00:25:40;10.00;99.90
32187;DHT22;18686;53.084;8.872;2024-03-22T00:28:07;10.00;99.90
32187;DHT22;18686;53.084;8.872;2024-03-22T00:30:33;10.00;99.90
32187;DHT22;18686;53.084;8.872;2024-03-22T00:33:00;10.00;99.90
32187;DHT22;18686;53.084;8.872;2024-03-22T00:35:26;10.00;99.90
32187;DHT22;18686;53.084;8.872;2024-03-22T00:37:55;10.10;99.90
32187;DHT22;18686;53.084;8.872;2024-03-22T00:40:21;10.10;99.90
32187;DHT22;18686;53.084;8.872;2024-03-22T00:42:48;10.00;99.90
32187;DHT22;18686;53.084;8.872;2024-03-22T00:45:15;10.00;99.90
32187;DHT22;18686;53.084;8.872;2024-03-22T00:47:42;10.00;99.90
32187;DHT22;18686;53.084;8.872;2024-03-22T00:50:09;10.00;99.90
32187;DHT22;18686;53.084;8.872;2024-03-22T00:52:37;10.00;99.90
32187;DHT22;18686;53.084;8.872;2024-03-22T00:55:04;10.00;99.90
32187;DHT22;18686;53.084;8.872;2024-03-22T00:57:32;10.10;99.90
32187;DHT22;18686;53.084;8.872;2024-03-22T00:59:58;10.10;99.90
32187;DHT22;18686;53.084;8.872;2024-03-22T01:02:25;10.10;99.90
32187;DHT22;18686;53.084;8.872;2024-03-22T01:04:52;10.10;99.90
32187;DHT22;18686;53.084;8.872;2024-03-22T01:07:19;10.10;99.90
32187;DHT22;18686;53.084;8.872;2024-03-22T01:09:45;10.10;99.90
32187;DHT22;18686;53.084;8.872;2024-03-22T01:12:14;10.10;99.90
32187;DHT22;18686;53.084;8.872;2024-03-22T01:14:40;10.10;99.90
32187;DHT22;18686;53.084;8.872;2024-03-22T01:17:07;10.20;99.90
32187;DHT22;18686;53.084;8.872;2024-03-22T01:19:33;10.20;99.90
32187;DHT22;18686;53.084;8.872;2024-03-22T01:22:01;10.20;99.90
32187;DHT22;18686;53.084;8.872;2024-03-22T01:24:27;10.20;99.90
32187;DHT22;18686;53.084;8.872;2024-03-22T01:26:54;10.20;99.90
32187;DHT22;18686;53.084;8.872;2024-03-22T01:29:22;10.20;99.90
32187;DHT22;18686;53.084;8.872;2024-03-22T01:31:49;10.20;99.90
32187;DHT22;18686;53.084;8.872;2024-03-22T01:34:15;10.20;99.90
32187;DHT22;18686;53.084;8.872;2024-03-22T01:36:42;10.20;99.90
32187;DHT22;18686;53.084;8.872;2024-03-22T01:39:08;10.20;99.90
32187;DHT22;18686;53.084;8.872;2024-03-22T01:41:36;10.20;99.90
32187;DHT22;18686;53.084;8.872;2024-03-22T01:44:02;10.20;99.90
32187;DHT22;18686;53.084;8.872;2024-03-22T01:46:30;10.20;99.90
32187;DHT22;18686;53.084;8.872;2024-03-22T01:48:57;10.20;99.90
32187;DHT22;18686;53.084;8.872;2024-03-22T01:51:24;10.20;99.90
32187;DHT22;18686;53.084;8.872;2024-03-22T01:53:51;10.20;99.90
32187;DHT22;18686;53.084;8.872;2024-03-22T01:56:19;10.30;99.90
32187;DHT22;18686;53.084;8.872;2024-03-22T01:58:46;10.20;99.90
32187;DHT22;18686;53.084;8.872;2024-03-22T02:01:13;10.20;99.90
32187;DHT22;18686;53.084;8.872;2024-03-22T02:03:41;10.20;99.90
32187;DHT22;18686;53.084;8.872;2024-03-22T02:06:08;10.20;99.90
32187;DHT22;18686;53.084;8.872;2024-03-22T02:08:35;10.20;99.90
32187;DHT22;18686;53.084;8.872;2024-03-22T02:11:03;10.20;99.90
32187;DHT22;18686;53.084;8.872;2024-03-22T02:13:29;10.20;99.90
32187;DHT22;18686;53.084;8.872;2024-03-22T02:15:56;10.20;99.90
32187;DHT22;18686;53.084;8.872;2024-03-22T02:18:23;10.20;99.90
32187;DHT22;18686;53.084;8.872;2024-03-22T02:20:52;10.20;99.90
32187;DHT22;18686;53.084;8.872;2024-03-22T02:23:23;10.20;99.90
32187;DHT22;18686;53.084;8.872;2024-03-22T02:25:51;10.30;99.90
32187;DHT22;18686;53.084;8.872;2024-03-22T02:28:17;10.30;99.90
32187;DHT22;18686;53.084;8.872;2024-03-22T02:30:44;10.30;99.90
32187;DHT22;18686;53.084;8.872;2024-03-22T02:33:10;10.30;99.90
32187;DHT22;18686;53.084;8.872;2024-03-22T02:35:37;10.30;99.90
32187;DHT22;18686;53.084;8.872;2024-03-22T02:38:04;10.30;99.90
32187;DHT22;18686;53.084;8.872;2024-03-22T02:40:32;10.20;99.90
32187;DHT22;18686;53.084;8.872;2024-03-22T02:42:59;10.30;99.90
32187;DHT22;18686;53.084;8.872;2024-03-22T02:45:27;10.30;99.90
32187;DHT22;18686;53.084;8.872;2024-03-22T02:47:53;10.30;99.90
32187;DHT22;18686;53.084;8.872;2024-03-22T02:50:20;10.30;99.90
32187;DHT22;18686;53.084;8.872;2024-03-22T02:52:48;10.20;99.90
32187;DHT22;18686;53.084;8.872;2024-03-22T02:55:15;10.30;99.90
32187;DHT22;18686;53.084;8.872;2024-03-22T02:57:43;10.30;99.90
32187;DHT22;18686;53.084;8.872;2024-03-22T03:00:11;10.20;99.90
32187;DHT22;18686;53.084;8.872;2024-03-22T03:02:37;10.20;99.90
32187;DHT22;18686;53.084;8.872;2024-03-22T03:05:05;10.30;99.90
32187;DHT22;18686;53.084;8.872;2024-03-22T03:07:32;10.30;99.90
32187;DHT22;18686;53.084;8.872;2024-03-22T03:09:59;10.30;99.90
32187;DHT22;18686;53.084;8.872;2024-03-22T03:12:25;10.30;99.90
32187;DHT22;18686;53.084;8.872;2024-03-22T03:14:54;10.30;99.90
32187;DHT22;18686;53.084;8.872;2024-03-22T03:17:21;10.30;99.90
32187;DHT22;18686;53.084;8.872;2024-03-22T03:19:49;10.30;99.90
32187;DHT22;18686;53.084;8.872;2024-03-22T03:22:15;10.30;99.90
32187;DHT22;18686;53.084;8.872;2024-03-22T03:24:43;10.20;99.90
32187;DHT22;18686;53.084;8.872;2024-03-22T03:27:10;10.20;99.90
32187;DHT22;18686;53.084;8.872;2024-03-22T03:29:37;10.20;99.90
32187;DHT22;18686;53.084;8.872;2024-03-22T03:32:05;10.30;99.90
32187;DHT22;18686;53.084;8.872;2024-03-22T03:34:32;10.20;99.90
32187;DHT22;18686;53.084;8.872;2024-03-22T03:36:58;10.30;99.90
32187;DHT22;18686;53.084;8.872;2024-03-22T03:39:27;10.30;99.90
32187;DHT22;18686;53.084;8.872;2024-03-22T03:41:55;10.30;99.90
32187;DHT22;18686;53.084;8.872;2024-03-22T03:44:22;10.30;99.90
32187;DHT22;18686;53.084;8.872;2024-03-22T03:46:48;10.30;99.90
32187;DHT22;18686;53.084;8.872;2024-03-22T03:49:17;10.30;99.90
32187;DHT22;18686;53.084;8.872;2024-03-22T03:51:43;10.40;99.90
32187;DHT22;18686;53.084;8.872;2024-03-22T03:54:10;10.40;99.90
32187;DHT22;18686;53.084;8.872;2024-03-22T03:56:37;10.40;99.90
32187;DHT22;18686;53.084;8.872;2024-03-22T03:59:04;10.40;99.90
32187;DHT22;18686;53.084;8.872;2024-03-22T04:01:30;10.50;99.90
32187;DHT22;18686;53.084;8.872;2024-03-22T04:03:57;10.50;99.90
32187;DHT22;18686;53.084;8.872;2024-03-22T04:06:25;10.50;99.90
32187;DHT22;18686;53.084;8.872;2024-03-22T04:08:52;10.50;99.90
32187;DHT22;18686;53.084;8.872;2024-03-22T04:11:18;10.50;99.90
32187;DHT22;18686;53.084;8.872;2024-03-22T04:13:46;10.50;99.90
32187;DHT22;18686;53.084;8.872;2024-03-22T04:16:13;10.50;99.90
32187;DHT22;18686;53.084;8.872;2024-03-22T04:18:41;10.50;99.90
32187;DHT22;18686;53.084;8.872;2024-03-22T04:21:07;10.60;99.90
32187;DHT22;18686;53.084;8.872;2024-03-22T04:23:35;10.60;99.90
32187;DHT22;18686;53.084;8.872;2024-03-22T04:26:02;10.60;99.90
32187;DHT22;18686;53.084;8.872;2024-03-22T04:28:30;10.60;99.90
32187;DHT22;18686;53.084;8.872;2024-03-22T04:30:58;10.60;99.90
32187;DHT22;18686;53.084;8.872;2024-03-22T04:33:25;10.60;99.90
32187;DHT22;18686;53.084;8.872;2024-03-22T04:35:53;10.60;99.90
32187;DHT22;18686;53.084;8.872;2024-03-22T04:38:20;10.60;99.90
32187;DHT22;18686;53.084;8.872;2024-03-22T04:40:49;10.70;99.90
32187;DHT22;18686;53.084;8.872;2024-03-22T04:43:16;10.70;99.90
32187;DHT22;18686;53.084;8.872;2024-03-22T04:45:43;10.70;99.90
32187;DHT22;18686;53.084;8.872;2024-03-22T04:48:12;10.70;99.90
32187;DHT22;18686;53.084;8.872;2024-03-22T04:50:38;10.70;99.90
32187;DHT22;18686;53.084;8.872;2024-03-22T04:53:05;10.70;99.90
32187;DHT22;18686;53.084;8.872;2024-03-22T04:55:32;10.80;99.90
32187;DHT22;18686;53.084;8.872;2024-03-22T04:58:01;10.80;99.90
32187;DHT22;18686;53.084;8.872;2024-03-22T05:00:27;10.80;99.90
32187;DHT22;18686;53.084;8.872;2024-03-22T05:02:55;10.80;99.90
32187;DHT22;18686;53.084;8.872;2024-03-22T05:05:21;10.80;99.90
32187;DHT22;18686;53.084;8.872;2024-03-22T05:07:48;10.80;99.90
32187;DHT22;18686;53.084;8.872;2024-03-22T05:10:15;10.80;99.90
32187;DHT22;18686;53.084;8.872;2024-03-22T05:12:42;10.80;99.90
32187;DHT22;18686;53.084;8.872;2024-03-22T05:15:10;10.90;99.90
32187;DHT22;18686;53.084;8.872;2024-03-22T05:17:37;10.90;99.90
32187;DHT22;18686;53.084;8.872;2024-03-22T05:20:06;10.90;99.90
32187;DHT22;18686;53.084;8.872;2024-03-22T05:22:36;10.90;99.90
32187;DHT22;18686;53.084;8.872;2024-03-22T05:25:02;10.90;99.90
32187;DHT22;18686;53.084;8.872;2024-03-22T05:27:30;10.90;99.90
32187;DHT22;18686;53.084;8.872;2024-03-22T05:29:57;10.90;99.90
32187;DHT22;18686;53.084;8.872;2024-03-22T05:32:26;10.90;99.90
32187;DHT22;18686;53.084;8.872;2024-03-22T05:34:52;10.90;99.90
32187;DHT22;18686;53.084;8.872;2024-03-22T05:37:19;11.00;99.90
32187;DHT22;18686;53.084;8.872;2024-03-22T05:39:45;11.00;99.90
32187;DHT22;18686;53.084;8.872;2024-03-22T05:42:13;11.00;99.90
32187;DHT22;18686;53.084;8.872;2024-03-22T05:44:41;11.00;99.90
32187;DHT22;18686;53.084;8.872;2024-03-22T05:47:07;11.00;99.90
32187;DHT22;18686;53.084;8.872;2024-03-22T05:49:35;11.10;99.90
32187;DHT22;18686;53.084;8.872;2024-03-22T05:52:02;11.10;99.90
32187;DHT22;18686;53.084;8.872;2024-03-22T05:54:29;11.10;99.90
32187;DHT22;18686;53.084;8.872;2024-03-22T05:56:55;11.10;99.90
32187;DHT22;18686;53.084;8.872;2024-03-22T05:59:22;11.10;99.90
32187;DHT22;18686;53.084;8.872;2024-03-22T06:01:49;11.20;99.90
32187;DHT22;18686;53.084;8.872;2024-03-22T06:04:16;11.10;99.90
32187;DHT22;18686;53.084;8.872;2024-03-22T06:06:44;11.20;99.90
32187;DHT22;18686;53.084;8.872;2024-03-22T06:09:11;11.20;99.90
32187;DHT22;18686;53.084;8.872;2024-03-22T06:11:39;11.20;99.90
32187;DHT22;18686;53.084;8.872;2024-03-22T06:14:10;11.20;99.90
32187;DHT22;18686;53.084;8.872;2024-03-22T06:16:36;11.20;99.90
32187;DHT22;18686;53.084;8.872;2024-03-22T06:19:03;11.30;99.90
32187;DHT22;18686;53.084;8.872;2024-03-22T06:21:29;11.30;99.90
32187;DHT22;18686;53.084;8.872;2024-03-22T06:23:58;11.30;99.90
32187;DHT22;18686;53.084;8.872;2024-03-22T06:26:24;11.40;99.90
32187;DHT22;18686;53.084;8.872;2024-03-22T06:28:51;11.50;99.90
32187;DHT22;18686;53.084;8.872;2024-03-22T06:31:17;11.50;99.90
32187;DHT22;18686;53.084;8.872;2024-03-22T06:33:45;11.50;99.90
32187;DHT22;18686;53.084;8.872;2024-03-22T06:36:12;11.50;99.90
32187;DHT22;18686;53.084;8.872;2024-03-22T06:38:39;11.50;99.90
32187;DHT22;18686;53.084;8.872;2024-03-22T06:41:07;11.50;99.90
32187;DHT22;18686;53.084;8.872;2024-03-22T06:43:34;11.50;99.90
32187;DHT22;18686;53.084;8.872;2024-03-22T06:46:00;11.50;99.90
32187;DHT22;18686;53.084;8.872;2024-03-22T06:48:28;11.50;99.90
32187;DHT22;18686;53.084;8.872;2024-03-22T06:50:54;11.50;99.90
32187;DHT22;18686;53.084;8.872;2024-03-22T06:53:21;11.40;99.90
32187;DHT22;18686;53.084;8.872;2024-03-22T06:55:49;11.40;99.90
32187;DHT22;18686;53.084;8.872;2024-03-22T06:58:18;11.40;99.90
32187;DHT22;18686;53.084;8.872;2024-03-22T07:00:44;11.40;99.90
32187;DHT22;18686;53.084;8.872;2024-03-22T07:03:11;11.40;99.90
32187;DHT22;18686;53.084;8.872;2024-03-22T07:05:37;11.30;99.90
32187;DHT22;18686;53.084;8.872;2024-03-22T07:08:05;11.30;99.90
32187;DHT22;18686;53.084;8.872;2024-03-22T07:10:31;11.40;99.90
32187;DHT22;18686;53.084;8.872;2024-03-22T07:12:59;11.30;99.90
32187;DHT22;18686;53.084;8.872;2024-03-22T07:15:27;11.40;99.90
32187;DHT22;18686;53.084;8.872;2024-03-22T07:17:55;11.30;99.90
32187;DHT22;18686;53.084;8.872;2024-03-22T07:20:23;11.30;99.90
32187;DHT22;18686;53.084;8.872;2024-03-22T07:22:49;11.30;99.90
32187;DHT22;18686;53.084;8.872;2024-03-22T07:25:16;11.30;99.90
32187;DHT22;18686;53.084;8.872;2024-03-22T07:27:42;11.20;99.90
32187;DHT22;18686;53.084;8.872;2024-03-22T07:30:10;11.10;99.90
32187;DHT22;18686;53.084;8.872;2024-03-22T07:32:38;11.10;99.90
32187;DHT22;18686;53.084;8.872;2024-03-22T07:35:06;11.10;99.90
32187;DHT22;18686;53.084;8.872;2024-03-22T07:37:33;11.00;99.90
32187;DHT22;18686;53.084;8.872;2024-03-22T07:40:01;11.00;99.90
32187;DHT22;18686;53.084;8.872;2024-03-22T07:42:27;11.00;99.90
32187;DHT22;18686;53.084;8.872;2024-03-22T07:44:54;11.00;99.90
32187;DHT22;18686;53.084;8.872;2024-03-22T07:47:21;11.00;99.90
32187;DHT22;18686;53.084;8.872;2024-03-22T07:49:50;11.00;99.90
32187;DHT22;18686;53.084;8.872;2024-03-22T07:52:16;11.00;99.90
32187;DHT22;18686;53.084;8.872;2024-03-22T07:54:44;11.00;99.90
32187;DHT22;18686;53.084;8.872;2024-03-22T07:57:11;11.00;99.90
32187;DHT22;18686;53.084;8.872;2024-03-22T07:59:38;11.00;99.90
32187;DHT22;18686;53.084;8.872;2024-03-22T08:02:04;10.90;99.90
32187;DHT22;18686;53.084;8.872;2024-03-22T08:04:33;10.90;99.90
32187;DHT22;18686;53.084;8.872;2024-03-22T08:07:00;10.90;99.90
32187;DHT22;18686;53.084;8.872;2024-03-22T08:09:27;10.90;99.90
32187;DHT22;18686;53.084;8.872;2024-03-22T08:11:54;11.00;99.90
32187;DHT22;18686;53.084;8.872;2024-03-22T08:14:21;11.00;99.90
32187;DHT22;18686;53.084;8.872;2024-03-22T08:16:47;11.00;99.90
32187;DHT22;18686;53.084;8.872;2024-03-22T08:19:14;11.00;99.90
32187;DHT22;18686;53.084;8.872;2024-03-22T08:21:41;11.00;99.90
32187;DHT22;18686;53.084;8.872;2024-03-22T08:24:10;10.90;99.90
32187;DHT22;18686;53.084;8.872;2024-03-22T08:26:36;10.90;99.90
32187;DHT22;18686;53.084;8.872;2024-03-22T08:29:03;10.90;99.90
32187;DHT22;18686;53.084;8.872;2024-03-22T08:31:29;10.90;99.90
32187;DHT22;18686;53.084;8.872;2024-03-22T08:33:57;11.00;99.90
32187;DHT22;18686;53.084;8.872;2024-03-22T08:36:23;11.00;99.90
32187;DHT22;18686;53.084;8.872;2024-03-22T08:38:50;11.00;99.90
32187;DHT22;18686;53.084;8.872;2024-03-22T08:41:18;11.00;99.90
32187;DHT22;18686;53.084;8.872;2024-03-22T08:43:45;11.00;99.90
32187;DHT22;18686;53.084;8.872;2024-03-22T08:46:13;11.00;99.90
32187;DHT22;18686;53.084;8.872;2024-03-22T08:48:40;11.00;99.90
32187;DHT22;18686;53.084;8.872;2024-03-22T08:51:06;11.10;99.90
32187;DHT22;18686;53.084;8.872;2024-03-22T08:53:33;11.10;99.90
32187;DHT22;18686;53.084;8.872;2024-03-22T08:56:00;11.10;99.90
32187;DHT22;18686;53.084;8.872;2024-03-22T08:58:28;11.10;99.90
32187;DHT22;18686;53.084;8.872;2024-03-22T09:00:54;11.10;99.90
32187;DHT22;18686;53.084;8.872;2024-03-22T09:03:23;11.10;99.90
32187;DHT22;18686;53.084;8.872;2024-03-22T09:05:52;11.10;99.90
32187;DHT22;18686;53.084;8.872;2024-03-22T09:08:20;11.00;99.90
32187;DHT22;18686;53.084;8.872;2024-03-22T09:10:47;11.00;99.90
32187;DHT22;18686;53.084;8.872;2024-03-22T09:13:14;10.90;99.90
32187;DHT22;18686;53.084;8.872;2024-03-22T09:15:42;11.00;99.90
32187;DHT22;18686;53.084;8.872;2024-03-22T09:18:09;11.00;99.90
32187;DHT22;18686;53.084;8.872;2024-03-22T09:20:35;11.00;99.90
32187;DHT22;18686;53.084;8.872;2024-03-22T09:23:03;11.00;99.90
32187;DHT22;18686;53.084;8.872;2024-03-22T09:25:30;11.10;99.90
32187;DHT22;18686;53.084;8.872;2024-03-22T09:27:57;11.10;99.90
32187;DHT22;18686;53.084;8.872;2024-03-22T09:30:23;11.10;99.90
32187;DHT22;18686;53.084;8.872;2024-03-22T09:32:52;11.00;99.90
32187;DHT22;18686;53.084;8.872;2024-03-22T09:35:19;11.00;99.90
32187;DHT22;18686;53.084;8.872;2024-03-22T09:37:47;11.10;99.90
32187;DHT22;18686;53.084;8.872;2024-03-22T09:40:13;11.00;99.90
32187;DHT22;18686;53.084;8.872;2024-03-22T09:42:41;11.00;99.90
32187;DHT22;18686;53.084;8.872;2024-03-22T09:45:08;11.00;99.90
32187;DHT22;18686;53.084;8.872;2024-03-22T09:47:38;11.00;99.90
32187;DHT22;18686;53.084;8.872;2024-03-22T09:50:07;10.90;99.90
32187;DHT22;18686;53.084;8.872;2024-03-22T09:52:37;10.90;99.90
32187;DHT22;18686;53.084;8.872;2024-03-22T09:55:05;10.90;99.90
32187;DHT22;18686;53.084;8.872;2024-03-22T09:57:34;10.90;99.90
32187;DHT22;18686;53.084;8.872;2024-03-22T10:00:04;10.90;99.90
32187;DHT22;18686;53.084;8.872;2024-03-22T10:02:37;10.90;99.90
32187;DHT22;18686;53.084;8.872;2024-03-22T10:05:04;10.90;99.90
32187;DHT22;18686;53.084;8.872;2024-03-22T10:07:33;10.90;99.90
32187;DHT22;18686;53.084;8.872;2024-03-22T10:10:00;10.90;99.90
32187;DHT22;18686;53.084;8.872;2024-03-22T10:12:27;10.80;99.90
32187;DHT22;18686;53.084;8.872;2024-03-22T10:14:53;10.80;99.90
32187;DHT22;18686;53.084;8.872;2024-03-22T10:17:21;10.80;99.90
32187;DHT22;18686;53.084;8.872;2024-03-22T10:19:48;10.80;99.90
32187;DHT22;18686;53.084;8.872;2024-03-22T10:22:16;10.90;99.90
32187;DHT22;18686;53.084;8.872;2024-03-22T10:24:44;10.90;99.90
32187;DHT22;18686;53.084;8.872;2024-03-22T10:27:12;10.90;99.90
32187;DHT22;18686;53.084;8.872;2024-03-22T10:29:38;10.90;99.90
32187;DHT22;18686;53.084;8.872;2024-03-22T10:32:06;10.90;99.90
32187;DHT22;18686;53.084;8.872;2024-03-22T10:34:34;11.00;99.90
32187;DHT22;18686;53.084;8.872;2024-03-22T10:37:02;11.10;99.90
32187;DHT22;18686;53.084;8.872;2024-03-22T10:39:30;11.20;99.90
32187;DHT22;18686;53.084;8.872;2024-03-22T10:41:59;11.30;99.90
32187;DHT22;18686;53.084;8.872;2024-03-22T10:44:25;11.40;99.90
32187;DHT22;18686;53.084;8.872;2024-03-22T10:46:55;11.50;99.90
32187;DHT22;18686;53.084;8.872;2024-03-22T10:49:25;11.60;99.90
32187;DHT22;18686;53.084;8.872;2024-03-22T10:51:57;11.70;99.90
32187;DHT22;18686;53.084;8.872;2024-03-22T10:54:30;11.70;99.90
32187;DHT22;18686;53.084;8.872;2024-03-22T10:57:01;11.60;99.90
32187;DHT22;18686;53.084;8.872;2024-03-22T10:59:33;11.60;99.90
32187;DHT22;18686;53.084;8.872;2024-03-22T11:02:03;11.60;99.90
32187;DHT22;18686;53.084;8.872;2024-03-22T11:04:30;11.60;99.90
32187;DHT22;18686;53.084;8.872;2024-03-22T11:06:57;11.60;99.90
32187;DHT22;18686;53.084;8.872;2024-03-22T11:09:25;11.60;99.90
32187;DHT22;18686;53.084;8.872;2024-03-22T11:11:53;11.60;99.90
32187;DHT22;18686;53.084;8.872;2024-03-22T11:14:22;11.60;99.90
32187;DHT22;18686;53.084;8.872;2024-03-22T11:16:51;11.70;99.90
32187;DHT22;18686;53.084;8.872;2024-03-22T11:19:18;11.70;99.90
32187;DHT22;18686;53.084;8.872;2024-03-22T11:21:46;11.80;99.90
32187;DHT22;18686;53.084;8.872;2024-03-22T11:24:12;11.90;99.90
32187;DHT22;18686;53.084;8.872;2024-03-22T11:26:39;11.90;99.90
32187;DHT22;18686;53.084;8.872;2024-03-22T11:29:05;11.90;99.90
32187;DHT22;18686;53.084;8.872;2024-03-22T11:31:35;11.90;99.90
32187;DHT22;18686;53.084;8.872;2024-03-22T11:34:02;11.90;99.90
32187;DHT22;18686;53.084;8.872;2024-03-22T11:36:30;12.00;99.90
32187;DHT22;18686;53.084;8.872;2024-03-22T11:38:56;11.90;99.90
32187;DHT22;18686;53.084;8.872;2024-03-22T11:41:27;11.90;99.90
32187;DHT22;18686;53.084;8.872;2024-03-22T11:43:54;11.90;99.90
32187;DHT22;18686;53.084;8.872;2024-03-22T11:46:21;11.90;99.90
32187;DHT22;18686;53.084;8.872;2024-03-22T11:48:53;11.90;99.90
32187;DHT22;18686;53.084;8.872;2024-03-22T11:51:19;11.90;99.90
32187;DHT22;18686;53.084;8.872;2024-03-22T11:53:50;11.80;99.90
32187;DHT22;18686;53.084;8.872;2024-03-22T11:56:19;11.90;99.90
32187;DHT22;18686;53.084;8.872;2024-03-22T11:58:46;11.90;99.90
32187;DHT22;18686;53.084;8.872;2024-03-22T12:01:15;11.90;99.90
32187;DHT22;18686;53.084;8.872;2024-03-22T12:03:43;12.00;99.90
32187;DHT22;18686;53.084;8.872;2024-03-22T12:06:12;12.00;99.90
32187;DHT22;18686;53.084;8.872;2024-03-22T12:08:39;12.00;99.90
32187;DHT22;18686;53.084;8.872;2024-03-22T12:11:07;12.00;99.90
32187;DHT22;18686;53.084;8.872;2024-03-22T12:13:34;12.00;99.90
32187;DHT22;18686;53.084;8.872;2024-03-22T12:16:03;12.00;99.90
32187;DHT22;18686;53.084;8.872;2024-03-22T12:18:30;12.00;99.90
32187;DHT22;18686;53.084;8.872;2024-03-22T12:20:57;12.00;99.90
32187;DHT22;18686;53.084;8.872;2024-03-22T12:23:25;12.00;99.90
32187;DHT22;18686;53.084;8.872;2024-03-22T12:25:52;12.00;99.90
32187;DHT22;18686;53.084;8.872;2024-03-22T12:28:20;12.00;99.90
32187;DHT22;18686;53.084;8.872;2024-03-22T12:30:47;12.00;99.90
32187;DHT22;18686;53.084;8.872;2024-03-22T12:33:14;12.00;99.90
32187;DHT22;18686;53.084;8.872;2024-03-22T12:35:41;12.10;99.90
32187;DHT22;18686;53.084;8.872;2024-03-22T12:38:08;12.10;99.90
32187;DHT22;18686;53.084;8.872;2024-03-22T12:40:38;12.10;99.90
32187;DHT22;18686;53.084;8.872;2024-03-22T12:43:04;12.10;99.90
32187;DHT22;18686;53.084;8.872;2024-03-22T12:45:32;12.10;99.90
32187;DHT22;18686;53.084;8.872;2024-03-22T12:47:58;12.10;99.90
32187;DHT22;18686;53.084;8.872;2024-03-22T12:50:26;12.10;99.90
32187;DHT22;18686;53.084;8.872;2024-03-22T12:52:53;12.10;99.90
32187;DHT22;18686;53.084;8.872;2024-03-22T12:55:20;12.10;99.90
32187;DHT22;18686;53.084;8.872;2024-03-22T12:57:47;12.00;99.90
32187;DHT22;18686;53.084;8.872;2024-03-22T13:00:15;12.10;99.90
32187;DHT22;18686;53.084;8.872;2024-03-22T13:02:44;12.00;99.90
32187;DHT22;18686;53.084;8.872;2024-03-22T13:05:12;11.90;99.90
32187;DHT22;18686;53.084;8.872;2024-03-22T13:07:38;11.90;99.90
32187;DHT22;18686;53.084;8.872;2024-03-22T13:10:06;11.90;99.90
32187;DHT22;18686;53.084;8.872;2024-03-22T13:12:34;12.00;99.90
32187;DHT22;18686;53.084;8.872;2024-03-22T13:15:03;12.00;99.90
32187;DHT22;18686;53.084;8.872;2024-03-22T13:17:30;12.00;99.90
32187;DHT22;18686;53.084;8.872;2024-03-22T13:19:57;11.90;99.90
32187;DHT22;18686;53.084;8.872;2024-03-22T13:22:24;11.90;99.90
32187;DHT22;18686;53.084;8.872;2024-03-22T13:24:51;11.90;99.90
32187;DHT22;18686;53.084;8.872;2024-03-22T13:27:18;11.90;99.90
32187;DHT22;18686;53.084;8.872;2024-03-22T13:29:48;11.90;99.90
32187;DHT22;18686;53.084;8.872;2024-03-22T13:32:17;11.90;99.90
32187;DHT22;18686;53.084;8.872;2024-03-22T13:34:46;11.90;99.90
32187;DHT22;18686;53.084;8.872;2024-03-22T13:37:13;11.90;99.90
32187;DHT22;18686;53.084;8.872;2024-03-22T13:39:39;11.90;99.90
32187;DHT22;18686;53.084;8.872;2024-03-22T13:42:06;11.90;99.90
32187;DHT22;18686;53.084;8.872;2024-03-22T13:44:32;12.00;99.90
32187;DHT22;18686;53.084;8.872;2024-03-22T13:47:00;12.00;99.90
32187;DHT22;18686;53.084;8.872;2024-03-22T13:49:27;12.00;99.90
32187;DHT22;18686;53.084;8.872;2024-03-22T13:51:58;12.10;99.90
32187;DHT22;18686;53.084;8.872;2024-03-22T13:54:25;12.20;99.90
32187;DHT22;18686;53.084;8.872;2024-03-22T13:56:52;12.40;99.90
32187;DHT22;18686;53.084;8.872;2024-03-22T13:59:18;12.60;99.90
32187;DHT22;18686;53.084;8.872;2024-03-22T14:01:45;12.60;99.90
32187;DHT22;18686;53.084;8.872;2024-03-22T14:04:13;12.60;99.90
32187;DHT22;18686;53.084;8.872;2024-03-22T14:06:42;12.50;99.90
32187;DHT22;18686;53.084;8.872;2024-03-22T14:09:08;12.50;99.90
32187;DHT22;18686;53.084;8.872;2024-03-22T14:11:39;12.50;99.90
32187;DHT22;18686;53.084;8.872;2024-03-22T14:14:05;12.50;99.90
32187;DHT22;18686;53.084;8.872;2024-03-22T14:16:33;12.40;99.90
32187;DHT22;18686;53.084;8.872;2024-03-22T14:19:00;12.40;99.90
32187;DHT22;18686;53.084;8.872;2024-03-22T14:21:28;12.50;99.90
32187;DHT22;18686;53.084;8.872;2024-03-22T14:23:55;12.50;99.90
32187;DHT22;18686;53.084;8.872;2024-03-22T14:26:22;12.60;99.90
32187;DHT22;18686;53.084;8.872;2024-03-22T14:28:49;12.60;99.90
32187;DHT22;18686;53.084;8.872;2024-03-22T14:31:17;12.60;99.90
32187;DHT22;18686;53.084;8.872;2024-03-22T14:33:43;12.70;99.90
32187;DHT22;18686;53.084;8.872;2024-03-22T14:36:11;12.70;99.90
32187;DHT22;18686;53.084;8.872;2024-03-22T14:38:39;12.80;99.90
32187;DHT22;18686;53.084;8.872;2024-03-22T14:41:07;12.90;99.90
32187;DHT22;18686;53.084;8.872;2024-03-22T14:43:33;12.90;99.90
32187;DHT22;18686;53.084;8.872;2024-03-22T14:46:01;13.00;99.90
32187;DHT22;18686;53.084;8.872;2024-03-22T14:48:28;12.90;99.90
32187;DHT22;18686;53.084;8.872;2024-03-22T14:50:55;12.80;99.90
32187;DHT22;18686;53.084;8.872;2024-03-22T14:53:22;12.70;99.90
32187;DHT22;18686;53.084;8.872;2024-03-22T14:55:53;12.70;99.90
32187;DHT22;18686;53.084;8.872;2024-03-22T14:58:21;12.50;99.90
32187;DHT22;18686;53.084;8.872;2024-03-22T15:00:53;12.40;99.90
32187;DHT22;18686;53.084;8.872;2024-03-22T15:03:19;12.30;99.90
32187;DHT22;18686;53.084;8.872;2024-03-22T15:05:49;12.20;99.90
32187;DHT22;18686;53.084;8.872;2024-03-22T15:08:16;12.00;99.90
32187;DHT22;18686;53.084;8.872;2024-03-22T15:10:43;11.90;99.90
32187;DHT22;18686;53.084;8.872;2024-03-22T15:13:09;11.80;99.90
32187;DHT22;18686;53.084;8.872;2024-03-22T15:15:38;11.70;99.90
32187;DHT22;18686;53.084;8.872;2024-03-22T15:18:06;11.60;99.90
32187;DHT22;18686;53.084;8.872;2024-03-22T15:20:33;11.60;99.90
32187;DHT22;18686;53.084;8.872;2024-03-22T15:23:01;11.50;99.90
32187;DHT22;18686;53.084;8.872;2024-03-22T15:25:28;11.40;99.90
32187;DHT22;18686;53.084;8.872;2024-03-22T15:27:54;11.40;99.90
32187;DHT22;18686;53.084;8.872;2024-03-22T15:30:22;11.40;99.90